Time;durP1;ratioP1;P1;durP2;ratioP2;P2;SDS_P1;SDS_P2;PMS_P1;PMS_P2;Temp;Humidity;BMP_temperature;BMP_pressure;BME280_temperature;BME280_humidity;BME280_pressure;Samples;Min_cycle;Max_cycle;Signal;HPM_P1;HPM_P2
2022/02/26 00:00:08;;;;;;;4.60;2.80;;;;;;;2.26;94.16;97932.56;5073102;28;20388;-64
2022/02/26 00:02:33;;;;;;;6.32;2.90;;;;;;;2.49;93.01;97942.34;5073988;28;20388;-64
2022/02/26 00:04:59;;;;;;;5.10;2.60;;;;;;;2.44;93.09;97941.97;5073891;28;20751;-64
2022/02/26 00:07:24;;;;;;;4.23;2.70;;;;;;;2.29;93.28;97937.44;5072707;28;20387;-65
2022/02/26 00:09:49;;;;;;;5.40;3.00;;;;;;;2.41;93.18;97941.44;5073703;28;20710;-64
2022/02/26 00:12:15;;;;;;;5.83;2.57;;;;;;;2.41;93.46;97949.19;5073632;28;20392;-64
2022/02/26 00:14:40;;;;;;;6.80;2.90;;;;;;;2.45;93.90;97946.16;5073906;28;20432;-64
2022/02/26 00:17:06;;;;;;;5.93;2.70;;;;;;;2.29;93.93;97940.03;5072668;28;20649;-64
2022/02/26 00:19:35;;;;;;;5.63;2.50;;;;;;;2.23;94.43;97941.41;5073394;28;20418;-64
2022/02/26 00:22:01;;;;;;;7.78;2.85;;;;;;;2.36;93.30;97939.28;5073877;28;20465;-62
2022/02/26 00:24:26;;;;;;;4.55;2.72;;;;;;;2.41;92.92;97952.59;5073688;28;20442;-63
2022/02/26 00:26:52;;;;;;;4.50;2.15;;;;;;;2.36;93.27;97952.22;5072841;28;20398;-64
2022/02/26 00:29:17;;;;;;;4.67;2.43;;;;;;;2.34;93.40;97961.91;5073585;28;20453;-63
2022/02/26 00:31:43;;;;;;;6.17;2.60;;;;;;;2.39;92.59;97964.06;5072900;28;20744;-63
2022/02/26 00:34:08;;;;;;;4.23;2.70;;;;;;;2.55;92.26;97964.25;5072977;28;20575;-64
2022/02/26 00:36:33;;;;;;;5.57;2.90;;;;;;;2.66;91.25;97974.38;5072688;28;20512;-64
2022/02/26 00:38:59;;;;;;;7.93;3.10;;;;;;;2.52;92.65;97969.69;5071910;28;20462;-63
2022/02/26 00:41:26;;;;;;;5.55;2.63;;;;;;;2.64;92.03;97978.06;5072879;28;20903;-62
2022/02/26 00:43:52;;;;;;;6.72;2.70;;;;;;;2.53;92.57;97976.50;5073014;28;20470;-63
2022/02/26 00:46:17;;;;;;;4.07;2.60;;;;;;;2.65;92.25;97979.69;5071238;28;20416;-64
2022/02/26 00:51:27;;;;;;;4.80;2.70;;;;;;;2.74;91.57;97989.16;5072440;28;20466;-65
2022/02/26 00:53:52;;;;;;;4.57;2.70;;;;;;;2.57;91.54;97989.94;5072840;28;20831;-63
2022/02/26 00:56:17;;;;;;;6.47;2.97;;;;;;;2.79;91.17;97999.88;5072050;28;20403;-65
2022/02/26 00:58:43;;;;;;;5.23;2.70;;;;;;;2.77;90.28;98001.81;5072811;28;20688;-63
2022/02/26 01:01:08;;;;;;;7.57;2.53;;;;;;;2.80;91.26;98006.69;5072669;28;20384;-63
2022/02/26 01:03:34;;;;;;;8.07;3.03;;;;;;;2.66;92.30;97997.66;5072764;28;20173;-63
2022/02/26 01:05:59;;;;;;;4.20;2.20;;;;;;;2.67;91.92;98001.06;5073141;28;20213;-64
2022/02/26 01:08:24;;;;;;;5.43;2.40;;;;;;;2.46;92.31;98004.72;5073365;28;20264;-63
2022/02/26 01:10:50;;;;;;;3.27;2.60;;;;;;;2.57;92.18;98005.47;5072903;28;20584;-63
2022/02/26 01:13:15;;;;;;;5.03;3.07;;;;;;;2.41;92.40;98009.53;5051752;28;20203;-63
2022/02/26 01:15:41;;;;;;;3.57;2.53;;;;;;;2.56;92.50;98014.22;5064092;28;20193;-63
2022/02/26 01:18:06;;;;;;;4.23;2.90;;;;;;;2.45;92.27;98013.44;5073370;28;20213;-63
2022/02/26 01:20:33;;;;;;;5.90;2.93;;;;;;;2.50;91.79;98020.78;5073233;28;20718;-64
2022/02/26 01:22:58;;;;;;;4.83;2.80;;;;;;;2.54;92.40;98021.31;5072207;28;20173;-63
2022/02/26 01:25:23;;;;;;;4.90;2.80;;;;;;;2.46;92.45;98024.59;5073406;28;20575;-64
2022/02/26 01:27:49;;;;;;;4.13;2.80;;;;;;;2.42;92.64;98020.69;5072973;28;20249;-64
2022/02/26 01:30:14;;;;;;;5.57;2.40;;;;;;;2.58;92.62;98020.84;5073038;28;20703;-63
2022/02/26 01:32:41;;;;;;;4.43;2.70;;;;;;;2.51;92.19;98018.03;5071408;28;20622;-63
2022/02/26 01:35:07;;;;;;;6.50;2.67;;;;;;;2.31;92.61;98015.72;5072976;28;20174;-65
2022/02/26 01:37:32;;;;;;;4.90;2.57;;;;;;;2.43;92.77;98022.31;5061134;28;20185;-64
2022/02/26 01:39:58;;;;;;;9.27;3.10;;;;;;;2.21;93.51;98017.53;5071665;28;20264;-64
2022/02/26 01:42:23;;;;;;;5.23;2.83;;;;;;;2.40;92.87;98022.59;5072721;28;20188;-64
2022/02/26 01:44:50;;;;;;;3.93;2.67;;;;;;;2.43;93.45;98022.31;5073122;28;20314;-64
2022/02/26 01:47:16;;;;;;;4.30;2.70;;;;;;;2.41;92.37;98026.81;5071500;28;20208;-63
2022/02/26 01:49:42;;;;;;;5.57;2.90;;;;;;;2.37;93.10;98022.91;5072653;28;20270;-63
2022/02/26 01:52:09;;;;;;;8.57;3.00;;;;;;;2.32;93.48;98023.34;5072423;28;20643;-66
2022/02/26 01:54:35;;;;;;;6.07;2.93;;;;;;;2.28;93.50;98016.81;5072702;28;20246;-64
2022/02/26 01:57:01;;;;;;;9.47;3.53;;;;;;;2.34;92.99;98018.03;5072710;28;20264;-64
2022/02/26 01:59:26;;;;;;;7.90;2.97;;;;;;;2.47;92.61;98015.88;5072110;28;20195;-64
2022/02/26 02:01:52;;;;;;;6.80;3.37;;;;;;;2.47;91.58;98014.13;5072737;28;20588;-64
2022/02/26 02:04:18;;;;;;;5.60;3.27;;;;;;;2.51;91.17;98007.69;5073046;28;20185;-64
2022/02/26 02:06:44;;;;;;;9.00;3.80;;;;;;;2.44;91.97;98014.41;5072999;28;20177;-63
2022/02/26 02:09:11;;;;;;;7.97;3.30;;;;;;;2.26;92.33;98010.16;5072361;28;20192;-64
2022/02/26 02:11:37;;;;;;;7.17;2.97;;;;;;;2.30;92.53;98014.06;5072534;28;20523;-63
2022/02/26 02:14:03;;;;;;;7.10;2.70;;;;;;;2.25;92.25;98006.75;5071892;28;20563;-63
2022/02/26 02:16:28;;;;;;;3.27;2.57;;;;;;;2.15;93.06;98007.75;5072545;28;20265;-64
2022/02/26 02:18:54;;;;;;;7.50;3.40;;;;;;;2.22;93.00;98012.22;5072669;28;20307;-63
2022/02/26 02:21:20;;;;;;;7.70;3.30;;;;;;;2.00;93.27;98025.53;5072273;28;20177;-63
2022/02/26 02:23:46;;;;;;;15.90;3.83;;;;;;;1.93;94.58;98017.53;5071243;28;20179;-64
2022/02/26 02:26:11;;;;;;;10.33;3.10;;;;;;;1.96;94.15;98022.41;5071983;28;20196;-63
2022/02/26 02:28:38;;;;;;;5.27;3.90;;;;;;;1.85;95.15;98025.16;5070919;28;20184;-63
2022/02/26 02:31:04;;;;;;;6.50;3.53;;;;;;;1.93;95.17;98021.88;5072445;28;20209;-63
2022/02/26 02:33:44;;;;;;;7.93;3.30;;;;;;;2.08;94.64;98023.84;5072000;28;20618;-63
2022/02/26 02:36:09;;;;;;;6.63;3.50;;;;;;;1.75;96.19;98011.47;5071666;28;20284;-64
2022/02/26 02:38:35;;;;;;;8.50;3.70;;;;;;;1.95;95.68;98025.16;5070503;28;20282;-63
2022/02/26 02:41:02;;;;;;;6.60;3.50;;;;;;;1.90;95.88;98029.91;5071762;28;20173;-63
2022/02/26 02:43:28;;;;;;;4.87;3.57;;;;;;;1.88;96.74;98029.25;5072507;28;20177;-63
2022/02/26 02:45:53;;;;;;;6.27;3.10;;;;;;;1.96;96.07;98030.16;5071513;28;20181;-63
2022/02/26 02:48:19;;;;;;;7.73;3.37;;;;;;;2.09;95.91;98029.84;5071650;28;20184;-64
2022/02/26 02:50:44;;;;;;;7.93;3.57;;;;;;;1.95;95.53;98032.91;5071536;28;20215;-64
2022/02/26 02:53:09;;;;;;;7.40;3.77;;;;;;;2.00;95.49;98035.88;5071385;28;20203;-64
2022/02/26 02:55:35;;;;;;;10.90;3.90;;;;;;;2.04;95.67;98038.03;5071832;28;20414;-63
2022/02/26 02:58:02;;;;;;;7.43;3.60;;;;;;;2.04;95.64;98040.59;5072239;28;20619;-63
2022/02/26 03:00:28;;;;;;;7.93;3.83;;;;;;;2.01;95.91;98040.88;5070904;28;20222;-64
2022/02/26 03:02:54;;;;;;;10.90;3.70;;;;;;;2.05;95.93;98039.66;5071855;28;20223;-64
2022/02/26 03:05:21;;;;;;;6.73;3.63;;;;;;;2.00;96.07;98044.44;5071790;28;20642;-64
2022/02/26 03:07:50;;;;;;;6.33;4.13;;;;;;;1.78;97.14;98039.63;5071609;28;20189;-64
2022/02/26 03:10:17;;;;;;;13.57;4.70;;;;;;;1.82;97.42;98053.06;5071342;28;20193;-64
2022/02/26 03:12:42;;;;;;;12.23;4.73;;;;;;;1.95;96.37;98054.38;5071650;28;20178;-63
2022/02/26 03:15:08;;;;;;;11.90;4.50;;;;;;;1.98;96.09;98054.09;5071927;28;20185;-63
2022/02/26 03:17:34;;;;;;;7.23;4.60;;;;;;;1.95;96.65;98061.34;5069978;28;20241;-64
2022/02/26 03:20:00;;;;;;;13.57;5.07;;;;;;;2.05;95.85;98057.75;5071583;28;20169;-63
2022/02/26 03:22:25;;;;;;;7.77;4.87;;;;;;;2.08;96.26;98057.47;5071143;28;20224;-64
2022/02/26 03:24:50;;;;;;;12.17;5.70;;;;;;;2.12;95.63;98059.78;5071995;28;20173;-63
2022/02/26 03:27:16;;;;;;;12.00;5.30;;;;;;;2.07;95.79;98062.75;5071614;28;20180;-64
2022/02/26 03:29:43;;;;;;;7.10;5.17;;;;;;;1.89;96.16;98059.31;5070964;28;20192;-63
2022/02/26 03:32:09;;;;;;;13.33;5.37;;;;;;;1.97;96.34;98067.97;5071296;28;20216;-63
2022/02/26 03:34:35;;;;;;;13.03;5.67;;;;;;;1.99;96.62;98065.25;5071763;28;20177;-64
2022/02/26 03:37:01;;;;;;;14.00;5.83;;;;;;;2.09;95.94;98060.88;5071260;28;20291;-64
2022/02/26 03:39:31;;;;;;;12.10;5.27;;;;;;;2.15;95.82;98070.66;5071294;28;20216;-63
2022/02/26 03:42:02;;;;;;;9.97;5.50;;;;;;;2.02;96.03;98064.97;5072021;28;20515;-63
2022/02/26 03:44:29;;;;;;;7.13;5.27;;;;;;;2.12;95.31;98068.31;5071724;28;20268;-63
2022/02/26 03:46:54;;;;;;;9.93;5.17;;;;;;;2.18;95.93;98070.34;5071812;28;20348;-63
2022/02/26 03:49:19;;;;;;;12.60;6.80;;;;;;;2.11;95.55;98071.88;5070123;28;20490;-63
2022/02/26 03:51:45;;;;;;;12.00;7.33;;;;;;;2.19;95.39;98069.41;5070361;28;20399;-63
2022/02/26 03:54:10;;;;;;;13.20;7.20;;;;;;;2.12;95.52;98070.13;5073207;28;20831;-63
2022/02/26 03:56:35;;;;;;;14.43;6.80;;;;;;;2.08;96.06;98075.56;5073624;28;20412;-63
2022/02/26 03:59:01;;;;;;;12.30;6.88;;;;;;;2.08;95.35;98079.91;5074326;28;20391;-66
2022/02/26 04:01:26;;;;;;;10.87;6.87;;;;;;;2.20;95.44;98085.72;5073764;28;20388;-63
2022/02/26 04:03:52;;;;;;;11.10;6.03;;;;;;;2.42;94.41;98090.53;5072534;28;20462;-63
2022/02/26 04:06:17;;;;;;;10.47;6.20;;;;;;;2.46;93.90;98094.47;5074201;28;20452;-63
2022/02/26 04:08:43;;;;;;;12.00;6.22;;;;;;;2.01;96.29;98090.00;5072582;28;20875;-63
2022/02/26 04:11:08;;;;;;;11.90;6.33;;;;;;;2.09;95.63;98097.06;5073898;28;20793;-63
2022/02/26 04:13:35;;;;;;;10.20;6.43;;;;;;;2.08;95.67;98092.84;5073815;28;20392;-63
2022/02/26 04:16:01;;;;;;;12.87;6.10;;;;;;;2.22;95.15;98092.41;5073484;28;20483;-63
2022/02/26 04:18:27;;;;;;;11.15;6.38;;;;;;;2.07;95.42;98099.78;5072800;28;20422;-63
2022/02/26 04:20:52;;;;;;;10.70;6.43;;;;;;;1.87;96.93;98099.97;5071778;28;20399;-63
2022/02/26 04:23:17;;;;;;;8.73;6.00;;;;;;;2.17;96.02;98093.78;5073526;28;20407;-64
2022/02/26 04:25:43;;;;;;;10.73;6.22;;;;;;;1.80;96.84;98104.06;5072333;28;20379;-63
2022/02/26 04:28:08;;;;;;;10.57;6.50;;;;;;;2.00;96.63;98100.50;5073002;28;20744;-63
2022/02/26 04:30:35;;;;;;;12.67;6.50;;;;;;;2.14;96.52;98101.81;5073169;28;20396;-64
2022/02/26 04:33:00;;;;;;;10.27;5.93;;;;;;;1.98;95.63;98103.22;5073215;28;20774;-63
2022/02/26 04:35:26;;;;;;;12.77;6.10;;;;;;;1.83;97.53;98106.41;5073124;28;20491;-64
2022/02/26 04:37:51;;;;;;;11.73;6.25;;;;;;;1.93;96.71;98110.59;5072639;28;20400;-63
2022/02/26 04:40:17;;;;;;;12.90;5.87;;;;;;;1.86;96.03;98106.91;5071866;28;20556;-63
2022/02/26 04:42:43;;;;;;;10.10;6.00;;;;;;;1.85;96.72;98114.81;5073319;28;20383;-63
2022/02/26 04:45:10;;;;;;;8.48;5.68;;;;;;;1.78;97.38;98116.34;5073024;28;20419;-63
2022/02/26 04:47:37;;;;;;;10.10;5.53;;;;;;;1.91;96.06;98115.06;5072579;28;20832;-64
2022/02/26 04:50:05;;;;;;;9.77;5.30;;;;;;;1.86;95.71;98113.84;5073101;28;20415;-63
2022/02/26 04:52:30;;;;;;;9.87;5.70;;;;;;;1.60;96.74;98117.03;5072125;28;20868;-63
2022/02/26 04:54:55;;;;;;;11.67;5.83;;;;;;;1.73;96.39;98108.19;5071634;28;20402;-64
2022/02/26 04:57:21;;;;;;;10.30;5.70;;;;;;;1.55;97.72;98113.22;5072584;28;20533;-63
2022/02/26 04:59:46;;;;;;;9.97;5.43;;;;;;;1.64;97.82;98114.97;5071196;28;20460;-63
2022/02/26 05:02:12;;;;;;;9.83;5.87;;;;;;;1.78;97.50;98118.91;5072621;28;20403;-63
2022/02/26 05:04:37;;;;;;;10.17;5.97;;;;;;;1.62;97.74;98119.47;5071421;28;20398;-64
2022/02/26 05:07:03;;;;;;;11.27;6.23;;;;;;;1.76;98.01;98126.81;5056290;28;20429;-64
2022/02/26 05:09:28;;;;;;;12.20;5.87;;;;;;;1.91;96.64;98124.59;5071157;28;20403;-64
2022/02/26 05:11:53;;;;;;;14.53;5.97;;;;;;;1.79;96.76;98133.44;5072553;28;20380;-63
2022/02/26 05:14:19;;;;;;;12.73;5.33;;;;;;;2.03;96.08;98123.47;5072402;28;20857;-64
2022/02/26 05:16:44;;;;;;;13.93;6.13;;;;;;;1.88;95.95;98124.88;5072106;28;20896;-64
2022/02/26 05:19:10;;;;;;;12.82;6.53;;;;;;;1.78;96.41;98140.41;5072582;28;20568;-63
2022/02/26 05:21:35;;;;;;;9.48;5.80;;;;;;;1.80;97.35;98141.06;5072131;28;20392;-63
2022/02/26 05:24:01;;;;;;;10.83;5.97;;;;;;;1.87;96.36;98129.22;5071906;28;20475;-64
2022/02/26 05:26:26;;;;;;;10.70;6.03;;;;;;;1.88;97.02;98142.97;5072446;28;20917;-63
2022/02/26 05:28:51;;;;;;;11.85;6.07;;;;;;;1.82;96.41;98146.09;5072191;28;20411;-63
2022/02/26 05:31:17;;;;;;;12.53;5.90;;;;;;;1.91;96.12;98138.34;5072245;28;20436;-63
2022/02/26 05:33:42;;;;;;;12.80;6.25;;;;;;;1.92;96.05;98147.72;5072282;28;20391;-63
2022/02/26 05:36:07;;;;;;;11.90;5.83;;;;;;;2.07;94.76;98150.69;5071720;28;20411;-64
2022/02/26 05:38:33;;;;;;;13.07;6.10;;;;;;;1.95;95.49;98138.88;5071724;28;20392;-63
2022/02/26 05:40:58;;;;;;;12.65;6.00;;;;;;;2.11;94.57;98151.22;5071542;28;20407;-63
2022/02/26 05:43:23;;;;;;;11.27;5.63;;;;;;;2.13;94.82;98162.22;5071554;28;20475;-63
2022/02/26 05:45:49;;;;;;;12.50;5.93;;;;;;;2.15;94.35;98161.16;5071826;28;20396;-63
2022/02/26 05:48:15;;;;;;;12.35;5.93;;;;;;;2.14;94.02;98169.03;5071717;28;20805;-63
2022/02/26 05:50:40;;;;;;;10.93;5.83;;;;;;;2.01;94.68;98164.16;5070858;28;20475;-64
2022/02/26 05:53:05;;;;;;;13.80;6.73;;;;;;;2.01;94.51;98166.75;5069416;28;20713;-64
2022/02/26 05:55:31;;;;;;;13.60;6.53;;;;;;;1.85;95.95;98176.84;5071245;28;20469;-63
2022/02/26 05:57:57;;;;;;;12.27;6.57;;;;;;;2.06;95.56;98177.50;5071506;28;20384;-63
2022/02/26 06:00:23;;;;;;;11.93;6.50;;;;;;;1.67;97.24;98182.69;5071937;28;20460;-63
2022/02/26 06:02:49;;;;;;;12.32;6.28;;;;;;;1.81;96.55;98178.88;5071410;28;20737;-66
2022/02/26 06:05:14;;;;;;;9.80;6.47;;;;;;;1.80;97.22;98191.94;5070406;28;20383;-63
2022/02/26 06:07:39;;;;;;;12.70;6.10;;;;;;;1.75;97.42;98188.94;5069764;28;20403;-65
2022/02/26 06:10:05;;;;;;;11.63;6.00;;;;;;;1.98;96.36;98193.72;5069868;28;20411;-63
2022/02/26 06:12:30;;;;;;;11.48;6.40;;;;;;;2.12;95.57;98200.19;5070147;28;20413;-63
2022/02/26 06:14:56;;;;;;;13.38;7.00;;;;;;;2.13;94.57;98191.50;5070995;28;20392;-63
2022/02/26 06:17:22;;;;;;;13.73;6.43;;;;;;;1.94;96.28;98199.28;5070767;28;20415;-64
2022/02/26 06:19:47;;;;;;;13.73;6.70;;;;;;;2.16;95.37;98201.59;5071025;28;20487;-63
2022/02/26 06:22:13;;;;;;;12.20;6.97;;;;;;;1.98;95.52;98195.47;5071224;28;20379;-63
2022/02/26 06:24:38;;;;;;;14.50;6.50;;;;;;;1.90;96.78;98193.56;5071245;28;20383;-64
2022/02/26 06:27:04;;;;;;;12.37;6.83;;;;;;;2.25;95.75;98202.50;5071258;28;20917;-63
2022/02/26 06:29:29;;;;;;;14.20;6.93;;;;;;;2.26;94.63;98197.19;5070736;28;20388;-64
2022/02/26 06:31:55;;;;;;;13.00;6.70;;;;;;;2.29;94.26;98199.50;5071228;28;20419;-63
2022/02/26 06:34:21;;;;;;;12.18;6.97;;;;;;;2.37;94.34;98204.81;5071189;28;20448;-63
2022/02/26 06:36:47;;;;;;;13.88;6.90;;;;;;;2.33;94.24;98213.81;5070117;28;20442;-64
2022/02/26 06:39:12;;;;;;;13.68;7.00;;;;;;;2.22;94.43;98216.53;5070399;28;20626;-63
2022/02/26 06:41:38;;;;;;;12.63;7.20;;;;;;;2.30;93.83;98215.84;5070932;28;20390;-63
2022/02/26 06:44:04;;;;;;;14.30;6.95;;;;;;;2.55;93.46;98217.84;5070393;28;20737;-63
2022/02/26 06:46:29;;;;;;;14.90;7.05;;;;;;;2.38;93.74;98226.31;5070696;28;20500;-63
2022/02/26 06:48:55;;;;;;;15.87;7.43;;;;;;;2.34;94.07;98236.09;5070382;28;20403;-63
2022/02/26 06:51:20;;;;;;;12.03;7.00;;;;;;;2.33;93.78;98236.25;5070271;28;20456;-63
2022/02/26 06:53:45;;;;;;;14.50;7.40;;;;;;;2.37;93.33;98237.59;5070229;28;20395;-63
2022/02/26 06:56:11;;;;;;;16.70;7.83;;;;;;;2.33;93.70;98242.25;5070770;28;20990;-63
2022/02/26 06:58:37;;;;;;;12.73;7.07;;;;;;;2.45;93.29;98248.09;5070413;28;20435;-63
2022/02/26 07:01:04;;;;;;;16.33;7.38;;;;;;;2.53;92.92;98247.38;5070500;28;20467;-63
2022/02/26 07:03:29;;;;;;;14.85;7.47;;;;;;;2.57;91.95;98243.53;5069216;28;20392;-63
2022/02/26 07:05:54;;;;;;;15.40;7.47;;;;;;;2.34;93.64;98256.81;5069988;28;20528;-64
2022/02/26 07:08:20;;;;;;;12.75;7.40;;;;;;;2.37;93.45;98253.94;5070646;28;20387;-63
2022/02/26 07:10:45;;;;;;;12.00;7.27;;;;;;;2.47;92.71;98257.34;5069121;28;20825;-63
2022/02/26 07:13:11;;;;;;;13.77;7.28;;;;;;;2.44;92.34;98264.56;5069082;28;20828;-64
2022/02/26 07:15:37;;;;;;;17.13;7.40;;;;;;;2.18;93.66;98261.72;5070165;28;20407;-63
2022/02/26 07:18:03;;;;;;;11.98;7.45;;;;;;;2.40;93.67;98265.78;5070139;28;20411;-63
2022/02/26 07:20:28;;;;;;;16.10;8.13;;;;;;;2.35;93.34;98263.59;5069752;28;20396;-64
2022/02/26 07:22:54;;;;;;;14.30;7.65;;;;;;;2.20;94.66;98264.19;5070659;28;20387;-63
2022/02/26 07:25:19;;;;;;;15.03;7.90;;;;;;;2.39;93.90;98266.75;5070211;28;20426;-63
2022/02/26 07:27:45;;;;;;;14.00;7.60;;;;;;;2.58;94.55;98276.25;5071526;28;20433;-63
2022/02/26 07:30:11;;;;;;;13.35;7.53;;;;;;;2.18;95.35;98271.25;5074694;28;20449;-64
2022/02/26 07:32:36;;;;;;;15.27;7.70;;;;;;;2.09;95.25;98271.13;5074614;28;20407;-64
2022/02/26 07:35:04;;;;;;;14.18;7.50;;;;;;;2.28;95.27;98275.50;5074520;28;20394;-63
2022/02/26 07:37:30;;;;;;;15.18;8.00;;;;;;;2.56;93.06;98270.41;5074082;28;20415;-63
2022/02/26 07:39:55;;;;;;;14.10;7.80;;;;;;;2.72;91.43;98281.00;5072482;28;20785;-64
2022/02/26 07:42:20;;;;;;;15.87;8.03;;;;;;;2.75;92.21;98284.09;5073897;28;20526;-67
2022/02/26 07:44:46;;;;;;;14.73;8.00;;;;;;;2.33;93.33;98288.81;5074036;28;20411;-63
2022/02/26 07:47:11;;;;;;;13.67;7.40;;;;;;;2.64;91.88;98286.84;5073910;28;20461;-64
2022/02/26 07:49:36;;;;;;;13.40;7.87;;;;;;;2.85;90.44;98281.47;5073658;28;20399;-64
2022/02/26 07:52:03;;;;;;;13.33;7.30;;;;;;;2.63;91.25;98286.97;5073980;28;20387;-64
2022/02/26 07:54:28;;;;;;;15.93;7.78;;;;;;;2.79;90.83;98289.81;5073189;28;20436;-64
2022/02/26 07:56:53;;;;;;;12.87;7.37;;;;;;;2.71;89.74;98300.88;5072554;28;20491;-65
2022/02/26 07:59:19;;;;;;;12.53;8.00;;;;;;;2.69;89.48;98292.41;5073550;28;20403;-65
2022/02/26 08:01:44;;;;;;;12.40;6.83;;;;;;;2.80;89.21;98289.66;5073962;28;20395;-65
2022/02/26 08:04:09;;;;;;;12.90;7.17;;;;;;;2.84;90.05;98298.00;5074208;28;20694;-65
2022/02/26 08:06:35;;;;;;;12.82;7.68;;;;;;;3.47;86.90;98303.31;5073562;28;20771;-64
2022/02/26 08:09:00;;;;;;;15.70;7.13;;;;;;;3.10;87.37;98308.53;5073684;28;20389;-64
2022/02/26 08:11:29;;;;;;;12.43;6.70;;;;;;;3.03;86.40;98303.09;5073214;28;20384;-67
2022/02/26 08:13:55;;;;;;;13.70;6.60;;;;;;;3.26;85.47;98309.56;5073774;28;20418;-64
2022/02/26 08:16:23;;;;;;;14.48;7.07;;;;;;;3.17;87.30;98309.59;5073945;28;20856;-64
2022/02/26 08:18:48;;;;;;;15.23;7.45;;;;;;;3.15;87.36;98308.91;5074116;28;20426;-65
2022/02/26 08:21:14;;;;;;;15.43;7.13;;;;;;;3.38;85.61;98317.13;5073584;28;20801;-65
2022/02/26 08:23:39;;;;;;;13.23;6.93;;;;;;;3.62;84.14;98317.44;5072304;28;20400;-66
2022/02/26 08:26:05;;;;;;;12.43;6.90;;;;;;;3.45;84.23;98313.84;5073091;28;20482;-65
2022/02/26 08:28:31;;;;;;;12.27;7.18;;;;;;;3.49;83.77;98312.59;5072071;28;20492;-65
2022/02/26 08:30:57;;;;;;;12.05;6.97;;;;;;;3.37;85.01;98310.31;5073422;28;20380;-65
2022/02/26 08:33:22;;;;;;;9.63;6.80;;;;;;;3.09;85.34;98315.47;5073255;28;20379;-64
2022/02/26 08:35:48;;;;;;;11.73;6.73;;;;;;;3.39;85.68;98316.19;5072572;28;20493;-65
2022/02/26 08:38:13;;;;;;;13.47;7.67;;;;;;;3.67;84.01;98320.41;5072622;28;20395;-64
2022/02/26 08:40:39;;;;;;;12.77;7.67;;;;;;;3.30;85.10;98320.44;5072660;28;20386;-64
2022/02/26 08:43:04;;;;;;;14.52;7.70;;;;;;;3.62;84.23;98322.63;5073290;28;20404;-65
2022/02/26 08:45:29;;;;;;;13.97;7.37;;;;;;;3.60;83.15;98320.16;5072960;28;20391;-64
2022/02/26 08:47:55;;;;;;;12.27;7.00;;;;;;;3.32;84.58;98313.34;5073325;28;20808;-64
2022/02/26 08:50:22;;;;;;;10.48;6.65;;;;;;;3.70;84.33;98318.34;5072792;28;20748;-63
2022/02/26 08:52:48;;;;;;;11.20;6.28;;;;;;;3.60;82.65;98312.38;5071284;28;20789;-64
2022/02/26 08:55:14;;;;;;;14.18;6.57;;;;;;;3.72;80.88;98319.00;5072536;28;20525;-63
2022/02/26 08:57:39;;;;;;;14.33;5.97;;;;;;;3.70;81.84;98317.50;5074102;28;20190;-64
2022/02/26 09:00:08;;;;;;;14.30;7.10;;;;;;;3.91;80.77;98319.84;5072831;28;20832;-63
2022/02/26 09:02:34;;;;;;;13.15;6.15;;;;;;;4.55;79.07;98315.25;5072785;28;20465;-65
2022/02/26 09:04:59;;;;;;;13.77;6.93;;;;;;;4.46;77.53;98320.50;5073030;28;20387;-63
2022/02/26 09:07:25;;;;;;;14.27;6.77;;;;;;;4.37;78.11;98322.22;5072715;28;20392;-65
2022/02/26 09:09:51;;;;;;;14.33;6.67;;;;;;;4.37;76.70;98322.22;5073690;28;20199;-65
2022/02/26 09:12:17;;;;;;;11.07;5.37;;;;;;;4.30;77.08;98328.16;5069199;28;20665;-67
2022/02/26 09:14:43;;;;;;;9.43;4.40;;;;;;;3.78;74.83;98320.22;5057686;28;20630;-66
2022/02/26 09:17:08;;;;;;;8.83;4.60;;;;;;;3.76;76.14;98320.34;5071989;28;20197;-66
2022/02/26 09:19:36;;;;;;;8.70;4.93;;;;;;;3.96;77.51;98320.22;5073622;28;20296;-66
2022/02/26 09:22:03;;;;;;;9.37;4.63;;;;;;;3.84;74.48;98319.63;5073140;28;20185;-65
2022/02/26 09:24:28;;;;;;;11.90;5.00;;;;;;;3.72;75.07;98316.41;5073426;28;20265;-67
2022/02/26 09:26:54;;;;;;;12.40;5.30;;;;;;;4.15;74.97;98320.09;5072790;28;20219;-66
2022/02/26 09:29:19;;;;;;;8.90;5.00;;;;;;;4.07;75.31;98320.81;5071368;28;20224;-70
2022/02/26 09:31:50;;;;;;;11.63;4.70;;;;;;;3.98;72.85;98319.09;5072202;28;20184;-66
2022/02/26 09:34:16;;;;;;;9.60;3.50;;;;;;;4.02;69.03;98323.03;5073621;28;20170;-66
2022/02/26 09:36:41;;;;;;;7.57;3.97;;;;;;;4.42;67.81;98313.97;5071501;28;20523;-66
2022/02/26 09:39:06;;;;;;;5.43;4.07;;;;;;;4.24;70.53;98320.97;5072114;28;20300;-66
2022/02/26 09:41:33;;;;;;;9.67;4.53;;;;;;;4.07;71.66;98315.63;5072368;28;20181;-67
2022/02/26 09:43:59;;;;;;;9.17;4.60;;;;;;;3.74;70.90;98319.66;5071784;28;20633;-66
2022/02/26 09:46:24;;;;;;;10.30;3.80;;;;;;;4.01;70.08;98320.59;5072984;28;20181;-66
2022/02/26 09:48:50;;;;;;;8.23;4.33;;;;;;;4.17;71.99;98315.56;5072910;28;20602;-67
2022/02/26 09:51:16;;;;;;;8.13;4.60;;;;;;;4.10;72.35;98312.75;5070763;28;20216;-66
2022/02/26 09:53:42;;;;;;;6.13;2.93;;;;;;;3.54;65.84;98315.56;5070355;28;20178;-67
2022/02/26 09:56:08;;;;;;;6.87;2.83;;;;;;;3.44;65.12;98314.81;5071360;28;20243;-67
2022/02/26 09:58:34;;;;;;;7.07;3.00;;;;;;;3.49;65.39;98316.94;5072243;28;20522;-68
2022/02/26 10:01:00;;;;;;;8.73;2.20;;;;;;;3.65;62.39;98317.13;5071718;28;20189;-67
2022/02/26 10:03:26;;;;;;;3.73;1.80;;;;;;;3.60;58.77;98320.16;5071854;28;20193;-66
2022/02/26 10:06:08;;;;;;;1.40;1.30;;;;;;;3.57;56.89;98320.44;5072428;28;20234;-66
2022/02/26 10:08:51;;;;;;;6.97;2.00;;;;;;;3.74;56.87;98327.44;5072453;28;20204;-66
2022/02/26 10:11:25;;;;;;;5.40;1.67;;;;;;;4.00;56.90;98326.75;5071679;28;20267;-64
2022/02/26 10:13:58;;;;;;;5.30;1.80;;;;;;;4.00;54.60;98324.16;5072026;28;20177;-66
2022/02/26 10:16:53;;;;;;;3.50;1.87;;;;;;;4.14;54.89;98326.22;5072387;28;20193;-64
2022/02/26 10:19:36;;;;;;;5.73;1.70;;;;;;;4.23;55.23;98332.31;5069155;28;20232;-65
2022/02/26 10:22:08;;;;;;;3.83;1.83;;;;;;;4.32;54.00;98328.81;5072407;28;20224;-63
2022/02/26 10:24:35;;;;;;;5.00;2.10;;;;;;;4.74;54.36;98328.97;5071518;28;20541;-64
2022/02/26 10:27:05;;;;;;;4.70;1.80;;;;;;;4.82;53.63;98332.47;5072833;28;20185;-64
2022/02/26 10:29:36;;;;;;;9.43;2.07;;;;;;;4.70;54.11;98328.47;5071850;28;20626;-65
2022/02/26 10:32:02;;;;;;;7.60;2.57;;;;;;;4.66;55.07;98327.16;5072291;28;20165;-65
2022/02/26 10:34:42;;;;;;;;;;;;;;;4.57;59.05;98322.84;5072255;28;20027;-65
2022/02/26 10:37:14;;;;;;;;;;;;;;;4.19;55.40;98324.81;5064560;28;20268;-63
2022/02/26 10:39:40;;;;;;;;;;;;;;;4.43;55.57;98321.63;5071401;28;20308;-64
2022/02/26 10:42:06;;;;;;;;;;;;;;;4.35;55.34;98323.31;5072280;28;19912;-63
2022/02/26 10:44:32;;;;;;;;;;;;;;;4.94;57.86;98305.28;5066435;28;19912;-61
2022/02/26 10:47:23;;;;;;;;;;;;;;;5.90;54.99;98312.84;5071655;28;19958;-61
2022/02/26 10:49:48;;;;;;;;;;;;;;;5.68;52.04;98309.84;5070655;28;20245;-62
2022/02/26 10:52:15;;;;;;;;;;;;;;;5.88;51.23;98310.41;5070719;28;19927;-63
2022/02/26 10:54:41;;;;;;;;;;;;;;;6.16;51.16;98296.13;5072246;28;19920;-62
2022/02/26 10:57:08;;;;;;;;;;;;;;;6.66;49.38;98301.19;5071983;28;19916;-63
2022/02/26 10:59:33;;;;;;;;;;;;;;;6.64;49.27;98299.72;5072169;28;20257;-63
2022/02/26 11:02:04;;;;;;;;;;;;;;;6.61;48.49;98303.47;5074810;28;19919;-62
2022/02/26 11:04:29;;;;;;;;;;;;;;;6.07;49.94;98304.94;5078868;28;19948;-62
2022/02/26 11:06:55;;;;;;;;;;;;;;;5.09;51.70;98310.72;5079091;28;20361;-63
2022/02/26 11:09:20;;;;;;;;;;;;;;;4.38;54.38;98310.06;5078779;28;19919;-62
2022/02/26 11:11:49;;;;;;;;;;;;;;;4.52;54.15;98309.50;5072372;28;20004;-62
2022/02/26 11:14:14;;;;;;;;;;;;;;;4.45;54.25;98308.50;5078679;28;19916;-61
2022/02/26 11:16:40;;;;;;;;;;;;;;;4.96;54.30;98298.13;5078327;28;20276;-62
2022/02/26 11:19:07;;;;;;;;;;;;;;;5.11;53.11;98295.78;5078763;28;20333;-62
2022/02/26 11:21:32;;;;;;;;;;;;;;;5.33;53.32;98297.84;5077246;28;19919;-61
2022/02/26 11:23:58;;;;;;;;;;;;;;;5.21;53.82;98295.66;5078677;28;20261;-61
2022/02/26 11:26:24;;;;;;;;;;;;;;;4.62;55.32;98305.06;5078193;28;19995;-61
2022/02/26 11:28:51;;;;;;;;;;;;;;;5.09;54.91;98291.69;5078927;28;19912;-61
2022/02/26 11:31:20;;;;;;;;;;;;;;;4.96;57.07;98305.91;5078250;28;19922;-62
2022/02/26 11:33:46;;;;;;;;;;;;;;;4.53;57.56;98295.56;5077302;28;19916;-63
2022/02/26 11:36:12;;;;;;;;;;;;;;;4.50;57.21;98293.28;5078371;28;20266;-61
2022/02/26 11:38:38;;;;;;;;;;;;;;;4.07;57.92;98297.47;5078595;28;19912;-61
2022/02/26 11:41:22;;;;;;;;;;;;;;;4.37;58.90;98298.03;5078670;28;20300;-61